Time,TemperatureF,DewpointF,PressureIn,WindDirection,WindDirectionDegrees,WindSpeedMPH,WindSpeedGustMPH,Humidity,HourlyPrecipIn,Conditions,Clouds,dailyrainin,SoftwareType,DateUTC
2013-05-05 00:01:00,83.6,72.8,29.81,SE,135,1.7,1.7,70,0.00,,---,0.00,VWS V13.01,2013-05-05 04:01:00,
2013-05-05 00:06:00,83.6,72.8,29.81,South,180,4.6,4.6,70,0.00,,---,0.00,VWS V13.01,2013-05-05 04:06:00,
2013-05-05 00:11:00,83.6,72.8,29.81,SSW,202,2.4,2.4,70,0.00,,---,0.00,VWS V13.01,2013-05-05 04:11:00,
2013-05-05 00:16:00,83.6,72.8,29.82,South,180,2.2,2.2,70,0.00,,---,0.00,VWS V13.01,2013-05-05 04:16:00,
2013-05-05 00:21:00,83.4,72.6,29.81,SSE,158,0.0,0.0,70,0.00,,---,0.00,VWS V13.01,2013-05-05 04:21:00,
2013-05-05 00:26:00,83.4,72.6,29.81,SSW,202,3.1,3.1,70,0.00,,---,0.00,VWS V13.01,2013-05-05 04:26:00,
2013-05-05 00:31:00,83.4,73.0,29.81,SSW,202,0.0,0.0,71,0.00,,---,0.00,VWS V13.01,2013-05-05 04:31:00,
2013-05-05 00:36:00,83.3,72.9,29.82,SSW,202,0.0,0.0,71,0.00,,---,0.00,VWS V13.01,2013-05-05 04:36:00,
2013-05-05 00:41:00,83.3,72.9,29.81,SSW,202,0.0,0.0,71,0.00,,---,0.00,VWS V13.01,2013-05-05 04:41:00,
2013-05-05 00:46:00,83.1,72.7,29.82,South,180,0.6,0.6,71,0.00,,---,0.00,VWS V13.01,2013-05-05 04:46:00,
2013-05-05 00:51:00,83.1,72.7,29.81,SW,225,0.0,0.0,71,0.00,,---,0.00,VWS V13.01,2013-05-05 04:51:00,
2013-05-05 00:56:00,83.1,72.7,29.80,SSW,202,0.0,0.0,71,0.00,,---,0.00,VWS V13.01,2013-05-05 04:56:00,
2013-05-05 01:01:00,83.1,72.7,29.80,South,180,0.0,0.0,71,0.00,,---,0.00,VWS V13.01,2013-05-05 05:01:00,
2013-05-05 01:06:00,83.1,72.7,29.80,SSW,202,0.0,0.0,71,0.00,,---,0.00,VWS V13.01,2013-05-05 05:06:00,
2013-05-05 01:11:00,83.1,72.7,29.80,South,180,4.9,4.9,71,0.00,,---,0.00,VWS V13.01,2013-05-05 05:11:00,
2013-05-05 01:16:00,82.9,72.5,29.79,SW,225,0.0,0.0,71,0.00,,---,0.00,VWS V13.01,2013-05-05 05:16:00,
2013-05-05 01:21:00,82.9,72.5,29.79,SSW,202,0.0,0.0,71,0.00,,---,0.00,VWS V13.01,2013-05-05 05:21:00,
2013-05-05 01:26:00,82.9,72.5,29.79,SSW,202,2.4,2.4,71,0.00,,---,0.00,VWS V13.01,2013-05-05 05:26:00,
2013-05-05 01:31:00,82.7,72.3,29.79,SSE,158,1.1,1.1,71,0.00,,---,0.00,VWS V13.01,2013-05-05 05:31:00,
2013-05-05 01:36:00,82.5,72.2,29.79,SW,225,0.0,0.0,71,0.00,,---,0.00,VWS V13.01,2013-05-05 05:36:00,
2013-05-05 01:41:00,82.5,72.2,29.78,South,180,0.0,0.0,71,0.00,,---,0.00,VWS V13.01,2013-05-05 05:41:00,
2013-05-05 01:46:00,82.5,72.2,29.78,South,180,1.5,1.5,71,0.00,,---,0.00,VWS V13.01,2013-05-05 05:46:00,
2013-05-05 01:51:00,82.5,72.2,29.78,SE,135,0.0,0.0,71,0.00,,---,0.00,VWS V13.01,2013-05-05 05:51:00,
2013-05-05 01:56:00,82.5,72.6,29.78,South,180,0.0,0.0,72,0.00,,---,0.00,VWS V13.01,2013-05-05 05:56:00,
2013-05-05 02:00:00,82.5,72.2,29.78,SE,135,0.0,0.0,71,0.00,,---,0.00,VWS V13.01,2013-05-05 06:00:00,
2013-05-05 02:05:00,82.5,72.2,29.77,SSE,158,0.6,0.6,71,0.00,,---,0.00,VWS V13.01,2013-05-05 06:05:00,
2013-05-05 02:10:00,82.5,72.2,29.77,West,270,0.0,0.0,71,0.00,,---,0.00,VWS V13.01,2013-05-05 06:10:00,
2013-05-05 02:15:00,82.4,72.5,29.77,South,180,0.0,0.0,72,0.00,,---,0.00,VWS V13.01,2013-05-05 06:15:00,
2013-05-05 02:20:00,82.2,72.3,29.77,SSW,202,0.0,0.0,72,0.00,,---,0.00,VWS V13.01,2013-05-05 06:20:00,
2013-05-05 02:25:00,82.2,72.3,29.76,West,270,0.0,0.0,72,0.00,,---,0.00,VWS V13.01,2013-05-05 06:25:00,
2013-05-05 02:30:00,82.2,72.3,29.77,South,180,0.0,0.0,72,0.00,,---,0.00,VWS V13.01,2013-05-05 06:30:00,
2013-05-05 02:35:00,82.0,72.1,29.77,SSW,202,1.3,1.3,72,0.00,,---,0.00,VWS V13.01,2013-05-05 06:35:00,
2013-05-05 02:40:00,82.0,72.1,29.77,WSW,248,0.0,0.0,72,0.00,,---,0.00,VWS V13.01,2013-05-05 06:40:00,
2013-05-05 02:45:00,82.0,72.1,29.76,South,180,0.0,0.0,72,0.00,,---,0.00,VWS V13.01,2013-05-05 06:45:00,
2013-05-05 02:50:00,81.8,72.3,29.76,WSW,248,0.0,0.0,73,0.00,,---,0.00,VWS V13.01,2013-05-05 06:50:00,
2013-05-05 02:55:00,81.6,72.1,29.76,East,90,0.0,0.0,73,0.00,,---,0.00,VWS V13.01,2013-05-05 06:55:00,
2013-05-05 03:00:00,81.6,72.1,29.76,NNW,338,1.3,1.3,73,0.00,,---,0.00,VWS V13.01,2013-05-05 07:00:00,
2013-05-05 03:05:00,81.6,72.1,29.77,WSW,248,0.0,0.0,73,0.00,,---,0.00,VWS V13.01,2013-05-05 07:05:00,
2013-05-05 03:10:00,81.6,72.1,29.76,SSW,202,0.0,0.0,73,0.00,,---,0.00,VWS V13.01,2013-05-05 07:10:00,
2013-05-05 03:15:00,81.5,72.0,29.76,SSW,202,0.0,0.0,73,0.00,,---,0.00,VWS V13.01,2013-05-05 07:15:00,
2013-05-05 03:20:00,81.5,72.0,29.76,SSE,158,0.0,0.0,73,0.00,,---,0.00,VWS V13.01,2013-05-05 07:20:00,
2013-05-05 03:25:00,81.5,72.0,29.76,South,180,0.0,0.0,73,0.00,,---,0.00,VWS V13.01,2013-05-05 07:25:00,
2013-05-05 03:30:00,81.3,71.8,29.76,South,180,0.0,0.0,73,0.00,,---,0.00,VWS V13.01,2013-05-05 07:30:00,
2013-05-05 03:35:00,81.3,71.8,29.76,SSE,158,0.0,0.0,73,0.00,,---,0.00,VWS V13.01,2013-05-05 07:35:00,
2013-05-05 03:40:00,81.3,71.8,29.76,South,180,1.5,1.5,73,0.00,,---,0.00,VWS V13.01,2013-05-05 07:40:00,
2013-05-05 03:45:00,81.3,71.8,29.76,South,180,0.0,0.0,73,0.00,,---,0.00,VWS V13.01,2013-05-05 07:45:00,
2013-05-05 03:50:00,81.3,72.2,29.76,South,180,0.0,0.0,74,0.00,,---,0.00,VWS V13.01,2013-05-05 07:50:00,
2013-05-05 03:55:00,81.3,72.2,29.76,South,180,0.0,0.0,74,0.00,,---,0.00,VWS V13.01,2013-05-05 07:55:00,
2013-05-05 04:00:00,81.3,72.2,29.76,SW,225,0.0,0.0,74,0.00,,---,0.00,VWS V13.01,2013-05-05 08:00:00,
2013-05-05 04:05:00,81.3,72.2,29.76,SW,225,0.0,0.0,74,0.00,,---,0.00,VWS V13.01,2013-05-05 08:05:00,
2013-05-05 04:10:00,81.1,72.0,29.76,SSW,202,0.0,0.0,74,0.00,,---,0.00,VWS V13.01,2013-05-05 08:10:00,
2013-05-05 04:15:00,81.1,72.0,29.77,SW,225,0.0,0.0,74,0.00,,---,0.00,VWS V13.01,2013-05-05 08:15:00,
2013-05-05 04:20:00,81.1,72.0,29.77,SSE,158,0.0,0.0,74,0.00,,---,0.00,VWS V13.01,2013-05-05 08:20:00,
2013-05-05 04:25:00,81.1,71.6,29.77,SSW,202,0.0,0.0,73,0.00,,---,0.00,VWS V13.01,2013-05-05 08:25:00,
2013-05-05 04:30:00,81.1,71.6,29.77,SE,135,0.0,0.0,73,0.00,,---,0.00,VWS V13.01,2013-05-05 08:30:00,
2013-05-05 04:35:00,81.1,72.0,29.77,SE,135,0.0,0.0,74,0.00,,---,0.00,VWS V13.01,2013-05-05 08:35:00,
2013-05-05 04:40:00,81.1,72.0,29.78,South,180,0.0,0.0,74,0.00,,---,0.00,VWS V13.01,2013-05-05 08:40:00,
2013-05-05 04:45:00,81.1,71.6,29.78,South,180,0.0,0.0,73,0.00,,---,0.00,VWS V13.01,2013-05-05 08:45:00,
2013-05-05 04:50:00,80.9,71.8,29.78,South,180,0.0,0.0,74,0.00,,---,0.00,VWS V13.01,2013-05-05 08:50:00,
2013-05-05 04:55:00,81.1,72.0,29.78,SE,135,0.0,0.0,74,0.00,,---,0.00,VWS V13.01,2013-05-05 08:55:00,
2013-05-05 05:00:00,80.9,71.8,29.78,ESE,112,0.0,0.0,74,0.00,,---,0.00,VWS V13.01,2013-05-05 09:00:00,
2013-05-05 05:05:00,81.1,72.0,29.78,South,180,0.0,0.0,74,0.00,,---,0.00,VWS V13.01,2013-05-05 09:05:00,
2013-05-05 05:10:00,81.1,72.0,29.78,South,180,0.0,0.0,74,0.00,,---,0.00,VWS V13.01,2013-05-05 09:10:00,
2013-05-05 05:15:00,80.9,71.8,29.79,SSE,158,0.0,0.0,74,0.00,,---,0.00,VWS V13.01,2013-05-05 09:15:00,
2013-05-05 05:20:00,80.9,71.8,29.79,WNW,292,0.0,0.0,74,0.00,,---,0.00,VWS V13.01,2013-05-05 09:20:00,
2013-05-05 05:25:00,80.9,71.8,29.79,SSW,202,0.0,0.0,74,0.00,,---,0.00,VWS V13.01,2013-05-05 09:25:00,
2013-05-05 05:30:00,80.7,71.7,29.79,South,180,0.0,0.0,74,0.00,,---,0.00,VWS V13.01,2013-05-05 09:30:00,
2013-05-05 05:35:00,80.7,71.7,29.80,SSW,202,0.0,0.0,74,0.00,,---,0.00,VWS V13.01,2013-05-05 09:35:00,
2013-05-05 05:40:00,80.6,71.9,29.80,SW,225,0.0,0.0,75,0.00,,---,0.00,VWS V13.01,2013-05-05 09:40:00,
2013-05-05 05:45:00,80.4,71.8,29.79,SSW,202,0.0,0.0,75,0.00,,---,0.00,VWS V13.01,2013-05-05 09:45:00,
2013-05-05 05:50:00,80.4,71.8,29.80,SW,225,0.0,0.0,75,0.00,,---,0.00,VWS V13.01,2013-05-05 09:50:00,
2013-05-05 05:55:00,80.4,71.8,29.80,SSW,202,0.0,0.0,75,0.00,,---,0.00,VWS V13.01,2013-05-05 09:55:00,
2013-05-05 06:00:00,80.4,71.8,29.80,SW,225,0.0,0.0,75,0.00,,---,0.00,VWS V13.01,2013-05-05 10:00:00,
2013-05-05 06:05:00,80.4,71.8,29.80,WNW,292,0.0,0.0,75,0.00,,---,0.00,VWS V13.01,2013-05-05 10:05:00,
2013-05-05 06:10:00,80.4,71.8,29.80,SW,225,0.0,0.0,75,0.00,,---,0.00,VWS V13.01,2013-05-05 10:10:00,
2013-05-05 06:15:00,80.4,71.8,29.80,South,180,0.0,0.0,75,0.00,,---,0.00,VWS V13.01,2013-05-05 10:15:00,
2013-05-05 06:20:00,80.4,71.8,29.81,South,180,0.0,0.0,75,0.00,,---,0.00,VWS V13.01,2013-05-05 10:20:00,
2013-05-05 06:25:00,80.4,71.8,29.81,South,180,0.0,0.0,75,0.00,,---,0.00,VWS V13.01,2013-05-05 10:25:00,
2013-05-05 06:30:00,80.7,72.0,29.82,South,180,0.0,0.0,75,0.00,,---,0.00,VWS V13.01,2013-05-05 10:30:00,
2013-05-05 06:35:00,80.7,72.0,29.82,SSW,202,0.0,0.0,75,0.00,,---,0.00,VWS V13.01,2013-05-05 10:35:00,
2013-05-05 06:40:00,80.7,72.0,29.82,South,180,0.0,0.0,75,0.00,,---,0.00,VWS V13.01,2013-05-05 10:40:00,
2013-05-05 06:45:00,80.9,72.2,29.83,SSE,158,0.0,0.0,75,0.00,,---,0.00,VWS V13.01,2013-05-05 10:45:00,
2013-05-05 06:50:00,81.1,72.4,29.83,SSW,202,0.0,0.0,75,0.00,,---,0.00,VWS V13.01,2013-05-05 10:50:00,
2013-05-05 06:55:00,81.3,72.6,29.83,South,180,0.0,0.0,75,0.00,,---,0.00,VWS V13.01,2013-05-05 10:55:00,
2013-05-05 07:00:00,81.5,72.4,29.83,SE,135,0.0,0.0,74,0.00,,---,0.00,VWS V13.01,2013-05-05 11:00:00,
2013-05-05 07:05:00,81.6,72.5,29.83,SSW,202,0.0,0.0,74,0.00,,---,0.00,VWS V13.01,2013-05-05 11:05:00,
2013-05-05 07:10:00,81.6,72.5,29.83,SSW,202,4.4,4.4,74,0.00,,---,0.00,VWS V13.01,2013-05-05 11:10:00,
2013-05-05 07:15:00,81.6,72.5,29.84,South,180,0.0,0.0,74,0.00,,---,0.00,VWS V13.01,2013-05-05 11:15:00,
2013-05-05 07:20:00,81.8,72.7,29.84,SSE,158,2.2,2.2,74,0.00,,---,0.00,VWS V13.01,2013-05-05 11:20:00,
2013-05-05 07:25:00,82.2,72.7,29.84,SSE,158,1.3,1.3,73,0.00,,---,0.00,VWS V13.01,2013-05-05 11:25:00,
2013-05-05 07:30:00,82.2,72.7,29.84,ESE,112,0.0,0.0,73,0.00,,---,0.00,VWS V13.01,2013-05-05 11:30:00,
2013-05-05 07:35:00,82.5,73.0,29.85,South,180,0.0,0.0,73,0.00,,---,0.00,VWS V13.01,2013-05-05 11:35:00,
2013-05-05 07:40:00,82.7,72.8,29.84,South,180,1.3,1.3,72,0.00,,---,0.00,VWS V13.01,2013-05-05 11:40:00,
2013-05-05 07:45:00,83.1,73.1,29.85,SSE,158,1.7,1.7,72,0.00,,---,0.00,VWS V13.01,2013-05-05 11:45:00,
2013-05-05 07:50:00,83.3,72.9,29.85,SE,135,0.0,0.0,71,0.00,,---,0.00,VWS V13.01,2013-05-05 11:50:00,
2013-05-05 07:55:00,83.4,72.6,29.86,ENE,68,0.0,0.0,70,0.00,,---,0.00,VWS V13.01,2013-05-05 11:55:00,
2013-05-05 08:00:00,83.8,72.6,29.85,NE,45,0.0,0.0,69,0.00,,---,0.00,VWS V13.01,2013-05-05 12:00:00,
2013-05-05 08:05:00,84.0,72.7,29.85,SW,225,0.0,0.0,69,0.00,,---,0.00,VWS V13.01,2013-05-05 12:05:00,
2013-05-05 08:10:00,84.3,72.6,29.86,WNW,292,0.0,0.0,68,0.00,,---,0.00,VWS V13.01,2013-05-05 12:10:00,
2013-05-05 08:15:00,84.3,72.6,29.86,North,0,0.0,0.0,68,0.00,,---,0.00,VWS V13.01,2013-05-05 12:15:00,
2013-05-05 08:20:00,84.3,72.6,29.86,SSE,158,2.0,2.0,68,0.00,,---,0.00,VWS V13.01,2013-05-05 12:20:00,
2013-05-05 08:25:00,84.7,73.0,29.85,SE,135,2.0,2.0,68,0.00,,---,0.00,VWS V13.01,2013-05-05 12:25:00,
2013-05-05 08:30:00,84.9,73.2,29.86,SE,135,2.4,2.4,68,0.00,,---,0.00,VWS V13.01,2013-05-05 12:30:00,
2013-05-05 08:35:00,85.2,73.0,29.86,WSW,248,0.0,0.0,67,0.00,,---,0.00,VWS V13.01,2013-05-05 12:35:00,
2013-05-05 08:40:00,85.2,73.0,29.85,SSW,202,0.0,0.0,67,0.00,,---,0.00,VWS V13.01,2013-05-05 12:40:00,
2013-05-05 08:45:00,85.2,73.0,29.85,WSW,248,0.0,0.0,67,0.00,,---,0.00,VWS V13.01,2013-05-05 12:45:00,
2013-05-05 08:50:00,85.4,73.2,29.86,SE,135,0.0,0.0,67,0.00,,---,0.00,VWS V13.01,2013-05-05 12:50:00,
2013-05-05 08:55:00,85.6,73.4,29.86,South,180,2.2,2.2,67,0.00,,---,0.00,VWS V13.01,2013-05-05 12:55:00,
2013-05-05 09:00:00,85.8,73.1,29.85,SE,135,6.4,6.4,66,0.00,,---,0.00,VWS V13.01,2013-05-05 13:00:00,
2013-05-05 09:05:00,86.1,73.4,29.86,ENE,68,2.4,2.4,66,0.00,,---,0.00,VWS V13.01,2013-05-05 13:05:00,
2013-05-05 09:10:00,86.7,73.5,29.85,SE,135,2.2,2.2,65,0.00,,---,0.00,VWS V13.01,2013-05-05 13:10:00,
2013-05-05 09:15:00,86.7,73.5,29.86,South,180,4.6,4.6,65,0.00,,---,0.00,VWS V13.01,2013-05-05 13:15:00,
2013-05-05 09:20:00,86.9,73.3,29.86,SSE,158,2.4,2.4,64,0.00,,---,0.00,VWS V13.01,2013-05-05 13:20:00,
2013-05-05 09:25:00,87.0,73.4,29.86,SSE,158,2.2,2.2,64,0.00,,---,0.00,VWS V13.01,2013-05-05 13:25:00,
2013-05-05 09:30:00,87.4,73.3,29.86,ENE,68,0.0,0.0,63,0.00,,---,0.00,VWS V13.01,2013-05-05 13:30:00,
2013-05-05 09:35:00,87.6,73.5,29.86,East,90,3.5,3.5,63,0.00,,---,0.00,VWS V13.01,2013-05-05 13:35:00,
2013-05-05 09:40:00,87.6,73.5,29.86,North,0,6.2,6.2,63,0.00,,---,0.00,VWS V13.01,2013-05-05 13:40:00,
2013-05-05 09:45:00,87.4,73.3,29.86,NNW,338,2.4,2.4,63,0.00,,---,0.00,VWS V13.01,2013-05-05 13:45:00,
2013-05-05 09:50:00,86.7,73.1,29.87,NNE,22,3.5,3.5,64,0.00,,---,0.00,VWS V13.01,2013-05-05 13:50:00,
2013-05-05 09:55:00,86.5,73.3,29.87,NNE,22,0.0,0.0,65,0.00,,---,0.00,VWS V13.01,2013-05-05 13:55:00,
2013-05-05 10:00:00,86.5,73.3,29.87,East,90,4.6,4.6,65,0.00,,---,0.00,VWS V13.01,2013-05-05 14:00:00,
2013-05-05 10:05:00,86.5,73.8,29.87,ENE,68,2.2,2.2,66,0.00,,---,0.00,VWS V13.01,2013-05-05 14:05:00,
2013-05-05 10:10:00,86.7,74.0,29.86,NNE,22,6.0,6.0,66,0.00,,---,0.00,VWS V13.01,2013-05-05 14:10:00,
2013-05-05 10:15:00,86.7,74.9,29.86,ESE,112,2.0,2.0,68,0.00,,---,0.00,VWS V13.01,2013-05-05 14:15:00,
2013-05-05 10:19:00,86.9,74.6,29.86,NNE,22,3.8,3.8,67,0.00,,---,0.00,VWS V13.01,2013-05-05 14:19:00,
2013-05-05 10:24:00,87.0,74.7,29.86,NNE,22,3.5,3.5,67,0.00,,---,0.00,VWS V13.01,2013-05-05 14:24:00,
2013-05-05 10:29:00,87.0,74.7,29.85,NE,45,4.9,4.9,67,0.00,,---,0.00,VWS V13.01,2013-05-05 14:29:00,
2013-05-05 10:34:00,87.4,75.1,29.86,NNW,338,2.0,2.0,67,0.00,,---,0.00,VWS V13.01,2013-05-05 14:34:00,
2013-05-05 10:39:00,87.4,74.7,29.86,North,0,3.1,3.1,66,0.00,,---,0.00,VWS V13.01,2013-05-05 14:39:00,
2013-05-05 10:44:00,87.0,74.3,29.86,NNW,338,5.1,5.1,66,0.00,,---,0.00,VWS V13.01,2013-05-05 14:44:00,
2013-05-05 10:49:00,86.7,74.0,29.86,NE,45,6.9,6.9,66,0.00,,---,0.00,VWS V13.01,2013-05-05 14:49:00,
2013-05-05 10:54:00,86.7,74.4,29.85,NNE,22,4.9,4.9,67,0.00,,---,0.00,VWS V13.01,2013-05-05 14:54:00,
2013-05-05 10:59:00,86.7,74.9,29.85,North,0,3.8,3.8,68,0.00,,---,0.00,VWS V13.01,2013-05-05 14:59:00,
2013-05-05 11:04:00,86.7,74.9,29.85,NNE,22,5.5,5.5,68,0.00,,---,0.00,VWS V13.01,2013-05-05 15:04:00,
2013-05-05 11:09:00,87.0,75.2,29.85,NNE,22,6.7,6.7,68,0.00,,---,0.00,VWS V13.01,2013-05-05 15:09:00,
2013-05-05 11:14:00,87.0,74.7,29.85,NNE,22,3.5,3.5,67,0.00,,---,0.00,VWS V13.01,2013-05-05 15:14:00,
2013-05-05 11:19:00,87.0,75.2,29.85,NNE,22,2.6,2.6,68,0.00,,---,0.00,VWS V13.01,2013-05-05 15:19:00,
2013-05-05 11:24:00,87.0,76.0,29.85,North,0,3.5,3.5,70,0.00,,---,0.00,VWS V13.01,2013-05-05 15:24:00,
2013-05-05 11:29:00,86.5,75.6,29.85,North,0,0.0,0.0,70,0.00,,---,0.00,VWS V13.01,2013-05-05 15:29:00,
2013-05-05 11:34:00,86.3,75.4,29.85,NNW,338,4.0,4.0,70,0.00,,---,0.00,VWS V13.01,2013-05-05 15:34:00,
2013-05-05 11:39:00,86.5,75.6,29.85,NW,315,4.4,4.4,70,0.00,,---,0.00,VWS V13.01,2013-05-05 15:39:00,
2013-05-05 11:44:00,86.9,75.5,29.84,North,0,4.9,4.9,69,0.00,,---,0.00,VWS V13.01,2013-05-05 15:44:00,
2013-05-05 11:49:00,86.7,75.3,29.84,NNE,22,2.2,2.2,69,0.00,,---,0.00,VWS V13.01,2013-05-05 15:49:00,
2013-05-05 11:54:00,86.3,74.9,29.84,North,0,2.0,2.0,69,0.00,,---,0.00,VWS V13.01,2013-05-05 15:54:00,
2013-05-05 11:59:00,86.3,74.9,29.85,NNW,338,3.5,3.5,69,0.00,,---,0.00,VWS V13.01,2013-05-05 15:59:00,
2013-05-05 12:04:00,86.7,75.3,29.85,NE,45,2.2,2.2,69,0.00,,---,0.00,VWS V13.01,2013-05-05 16:04:00,
2013-05-05 12:09:00,87.0,75.2,29.84,North,0,3.8,3.8,68,0.00,,---,0.00,VWS V13.01,2013-05-05 16:09:00,
2013-05-05 12:14:00,87.0,75.2,29.85,East,90,4.0,4.0,68,0.00,,---,0.00,VWS V13.01,2013-05-05 16:14:00,
2013-05-05 12:19:00,86.9,74.6,29.84,North,0,2.4,2.4,67,0.00,,---,0.00,VWS V13.01,2013-05-05 16:19:00,
2013-05-05 12:24:00,87.4,75.6,29.85,East,90,6.0,6.0,68,0.00,,---,0.00,VWS V13.01,2013-05-05 16:24:00,
2013-05-05 12:29:00,87.8,75.5,29.85,ENE,68,2.0,2.0,67,0.00,,---,0.00,VWS V13.01,2013-05-05 16:29:00,
2013-05-05 12:34:00,88.5,76.2,29.85,East,90,10.7,10.7,67,0.00,,---,0.00,VWS V13.01,2013-05-05 16:34:00,
2013-05-05 12:39:00,89.2,76.4,29.85,ENE,68,6.9,6.9,66,0.00,,---,0.00,VWS V13.01,2013-05-05 16:39:00,
2013-05-05 12:44:00,89.4,76.1,29.85,ENE,68,6.9,6.9,65,0.00,,---,0.00,VWS V13.01,2013-05-05 16:44:00,
2013-05-05 12:49:00,88.8,76.0,29.84,NE,45,3.8,3.8,66,0.00,,---,0.00,VWS V13.01,2013-05-05 16:49:00,
2013-05-05 12:54:00,88.3,76.0,29.84,ESE,112,6.2,6.2,67,0.00,,---,0.00,VWS V13.01,2013-05-05 16:54:00,
2013-05-05 12:59:00,88.1,76.2,29.84,ENE,68,6.2,6.2,68,0.00,,---,0.00,VWS V13.01,2013-05-05 16:59:00,
2013-05-05 13:04:00,87.9,76.5,29.84,ENE,68,4.6,4.6,69,0.00,,---,0.00,VWS V13.01,2013-05-05 17:04:00,
2013-05-05 13:09:00,88.3,76.8,29.84,East,90,2.2,2.2,69,0.00,,---,0.00,VWS V13.01,2013-05-05 17:09:00,
2013-05-05 13:14:00,88.8,76.4,29.84,East,90,4.9,4.9,67,0.00,,---,0.00,VWS V13.01,2013-05-05 17:14:00,
2013-05-05 13:19:00,89.4,77.0,29.84,East,90,6.0,6.0,67,0.00,,---,0.00,VWS V13.01,2013-05-05 17:19:00,
2013-05-05 13:24:00,89.7,76.8,29.85,SE,135,6.2,6.2,66,0.00,,---,0.00,VWS V13.01,2013-05-05 17:24:00,
2013-05-05 13:29:00,89.4,76.1,29.84,ENE,68,3.8,3.8,65,0.00,,---,0.00,VWS V13.01,2013-05-05 17:29:00,
2013-05-05 13:34:00,89.4,76.1,29.83,ESE,112,3.1,3.1,65,0.00,,---,0.00,VWS V13.01,2013-05-05 17:34:00,
2013-05-05 13:39:00,89.4,76.1,29.83,East,90,5.5,5.5,65,0.00,,---,0.00,VWS V13.01,2013-05-05 17:39:00,
2013-05-05 13:44:00,89.2,75.9,29.83,ESE,112,0.6,0.6,65,0.00,,---,0.00,VWS V13.01,2013-05-05 17:44:00,
2013-05-05 13:49:00,88.8,75.1,29.84,SE,135,2.0,2.0,64,0.00,,---,0.00,VWS V13.01,2013-05-05 17:49:00,
2013-05-05 13:54:00,88.5,74.8,29.84,NE,45,6.0,6.0,64,0.00,,---,0.00,VWS V13.01,2013-05-05 17:54:00,
2013-05-05 13:59:00,88.5,74.8,29.84,NE,45,4.9,4.9,64,0.00,,---,0.00,VWS V13.01,2013-05-05 17:59:00,
2013-05-05 14:04:00,88.3,73.6,29.84,ENE,68,2.9,2.9,62,0.00,,---,0.00,VWS V13.01,2013-05-05 18:04:00,
2013-05-05 14:09:00,88.1,74.4,29.83,ENE,68,2.2,2.2,64,0.00,,---,0.00,VWS V13.01,2013-05-05 18:09:00,
2013-05-05 14:14:00,87.9,74.7,29.84,ENE,68,2.4,2.4,65,0.00,,---,0.00,VWS V13.01,2013-05-05 18:14:00,
2013-05-05 14:19:00,87.8,75.9,29.84,ENE,68,0.0,0.0,68,0.02,,---,0.02,VWS V13.01,2013-05-05 18:19:00,
2013-05-05 14:24:00,87.4,76.4,29.84,SSE,158,2.0,2.0,70,0.10,,---,0.10,VWS V13.01,2013-05-05 18:24:00,
2013-05-05 14:29:00,86.7,76.6,29.84,ENE,68,2.4,2.4,72,0.16,,---,0.16,VWS V13.01,2013-05-05 18:29:00,
2013-05-05 14:34:00,86.5,76.8,29.84,ESE,112,2.2,2.2,73,0.16,,---,0.16,VWS V13.01,2013-05-05 18:34:00,
2013-05-05 14:39:00,86.7,77.4,29.84,East,90,2.0,2.0,74,0.16,,---,0.16,VWS V13.01,2013-05-05 18:39:00,
2013-05-05 14:44:00,87.2,77.9,29.84,East,90,4.4,4.4,74,0.18,,---,0.18,VWS V13.01,2013-05-05 18:44:00,
2013-05-05 14:49:00,87.4,77.7,29.83,East,90,5.1,5.1,73,0.18,,---,0.18,VWS V13.01,2013-05-05 18:49:00,
2013-05-05 14:54:00,87.4,77.3,29.84,ENE,68,4.0,4.0,72,0.18,,---,0.18,VWS V13.01,2013-05-05 18:54:00,
2013-05-05 14:59:00,87.0,76.0,29.84,NE,45,1.3,1.3,70,0.18,,---,0.18,VWS V13.01,2013-05-05 18:59:00,
2013-05-05 15:04:00,87.0,76.0,29.83,NE,45,4.0,4.0,70,0.18,,---,0.18,VWS V13.01,2013-05-05 19:04:00,
2013-05-05 15:09:00,87.4,76.4,29.83,NE,45,0.0,0.0,70,0.18,,---,0.18,VWS V13.01,2013-05-05 19:09:00,
2013-05-05 15:14:00,88.1,76.7,29.83,North,0,2.4,2.4,69,0.18,,---,0.18,VWS V13.01,2013-05-05 19:14:00,
2013-05-05 15:19:00,87.6,75.7,29.83,NE,45,2.4,2.4,68,0.16,,---,0.18,VWS V13.01,2013-05-05 19:19:00,
2013-05-05 15:24:00,87.4,75.6,29.84,ENE,68,4.6,4.6,68,0.04,,---,0.18,VWS V13.01,2013-05-05 19:24:00,
2013-05-05 15:29:00,86.7,75.3,29.83,NNE,22,3.8,3.8,69,0.02,,---,0.18,VWS V13.01,2013-05-05 19:29:00,
2013-05-05 15:34:00,86.1,75.2,29.83,North,0,2.4,2.4,70,0.02,,---,0.18,VWS V13.01,2013-05-05 19:34:00,
2013-05-05 15:39:00,85.8,75.3,29.83,East,90,0.6,0.6,71,0.00,,---,0.18,VWS V13.01,2013-05-05 19:39:00,
2013-05-05 15:44:00,86.1,75.6,29.83,NNE,22,0.0,0.0,71,0.00,,---,0.18,VWS V13.01,2013-05-05 19:44:00,
2013-05-05 15:49:00,86.1,75.6,29.82,NNW,338,0.0,0.0,71,0.00,,---,0.18,VWS V13.01,2013-05-05 19:49:00,
2013-05-05 15:54:00,86.3,75.8,29.83,NE,45,1.3,1.3,71,0.00,,---,0.18,VWS V13.01,2013-05-05 19:54:00,
2013-05-05 15:59:00,86.3,75.8,29.83,NW,315,0.0,0.0,71,0.00,,---,0.18,VWS V13.01,2013-05-05 19:59:00,
2013-05-05 16:04:00,86.3,75.8,29.83,NNE,22,0.0,0.0,71,0.00,,---,0.18,VWS V13.01,2013-05-05 20:04:00,
2013-05-05 16:09:00,86.3,75.4,29.84,NNW,338,2.0,2.0,70,0.00,,---,0.18,VWS V13.01,2013-05-05 20:09:00,
2013-05-05 16:14:00,86.3,75.4,29.84,North,0,0.8,0.8,70,0.00,,---,0.18,VWS V13.01,2013-05-05 20:14:00,
2013-05-05 16:19:00,86.5,75.1,29.83,NW,315,0.0,0.0,69,0.00,,---,0.18,VWS V13.01,2013-05-05 20:19:00,
2013-05-05 16:24:00,86.9,75.5,29.83,NNW,338,0.0,0.0,69,0.00,,---,0.18,VWS V13.01,2013-05-05 20:24:00,
2013-05-05 16:29:00,87.0,75.2,29.83,NNE,22,2.0,2.0,68,0.00,,---,0.18,VWS V13.01,2013-05-05 20:29:00,
2013-05-05 16:34:00,87.6,74.8,29.83,North,0,1.3,1.3,66,0.00,,---,0.18,VWS V13.01,2013-05-05 20:34:00,
2013-05-05 16:39:00,87.6,74.8,29.83,NNW,338,0.0,0.0,66,0.00,,---,0.18,VWS V13.01,2013-05-05 20:39:00,
2013-05-05 16:44:00,87.4,75.1,29.83,ENE,68,1.5,1.5,67,0.00,,---,0.18,VWS V13.01,2013-05-05 20:44:00,
2013-05-05 16:48:00,87.6,75.3,29.83,East,90,3.3,3.3,67,0.00,,---,0.18,VWS V13.01,2013-05-05 20:48:00,
2013-05-05 16:53:00,87.6,75.3,29.83,ENE,68,2.4,2.4,67,0.00,,---,0.18,VWS V13.01,2013-05-05 20:53:00,
2013-05-05 16:58:00,87.2,74.9,29.83,NE,45,0.0,0.0,67,0.00,,---,0.18,VWS V13.01,2013-05-05 20:58:00,
2013-05-05 17:03:00,86.7,74.4,29.83,NE,45,0.0,0.0,67,0.00,,---,0.18,VWS V13.01,2013-05-05 21:03:00,
2013-05-05 17:08:00,86.1,74.8,29.83,ENE,68,0.0,0.0,69,0.00,,---,0.18,VWS V13.01,2013-05-05 21:08:00,
2013-05-05 17:13:00,86.1,74.8,29.83,North,0,0.0,0.0,69,0.00,,---,0.18,VWS V13.01,2013-05-05 21:13:00,
2013-05-05 17:18:00,85.8,75.3,29.83,ENE,68,0.0,0.0,71,0.00,,---,0.18,VWS V13.01,2013-05-05 21:18:00,
2013-05-05 17:23:00,85.4,75.3,29.84,NE,45,0.0,0.0,72,0.00,,---,0.18,VWS V13.01,2013-05-05 21:23:00,
2013-05-05 17:28:00,85.4,75.3,29.84,ESE,112,0.0,0.0,72,0.00,,---,0.18,VWS V13.01,2013-05-05 21:28:00,
2013-05-05 17:33:00,85.1,75.5,29.85,ESE,112,0.0,0.0,73,0.02,,---,0.20,VWS V13.01,2013-05-05 21:33:00,
2013-05-05 17:38:00,84.9,75.3,29.85,SSE,158,0.0,0.0,73,0.02,,---,0.20,VWS V13.01,2013-05-05 21:38:00,
2013-05-05 17:43:00,84.7,75.5,29.85,South,180,0.0,0.0,74,0.02,,---,0.20,VWS V13.01,2013-05-05 21:43:00,
2013-05-05 17:48:00,84.7,75.5,29.84,SE,135,0.0,0.0,74,0.02,,---,0.20,VWS V13.01,2013-05-05 21:48:00,
2013-05-05 17:53:00,84.7,75.5,29.85,SSE,158,1.7,1.7,74,0.02,,---,0.20,VWS V13.01,2013-05-05 21:53:00,
2013-05-05 17:58:00,84.5,75.7,29.84,SE,135,2.9,2.9,75,0.02,,---,0.20,VWS V13.01,2013-05-05 21:58:00,
2013-05-05 18:03:00,84.5,75.7,29.84,South,180,0.0,0.0,75,0.02,,---,0.20,VWS V13.01,2013-05-05 22:03:00,
2013-05-05 18:08:00,84.3,75.5,29.84,SE,135,0.0,0.0,75,0.02,,---,0.20,VWS V13.01,2013-05-05 22:08:00,
2013-05-05 18:13:00,84.3,75.5,29.85,SSE,158,0.0,0.0,75,0.02,,---,0.20,VWS V13.01,2013-05-05 22:13:00,
2013-05-05 18:18:00,84.0,75.6,29.85,ESE,112,0.0,0.0,76,0.02,,---,0.20,VWS V13.01,2013-05-05 22:18:00,
2013-05-05 18:23:00,84.0,75.6,29.85,SE,135,2.0,2.0,76,0.02,,---,0.20,VWS V13.01,2013-05-05 22:23:00,
2013-05-05 18:28:00,84.0,75.6,29.85,South,180,2.0,2.0,76,0.02,,---,0.20,VWS V13.01,2013-05-05 22:28:00,
2013-05-05 18:33:00,84.0,75.6,29.85,SSE,158,0.0,0.0,76,0.00,,---,0.20,VWS V13.01,2013-05-05 22:33:00,
2013-05-05 18:38:00,83.8,75.4,29.85,SSE,158,0.0,0.0,76,0.00,,---,0.20,VWS V13.01,2013-05-05 22:38:00,
2013-05-05 18:43:00,83.8,75.4,29.85,East,90,0.0,0.0,76,0.00,,---,0.20,VWS V13.01,2013-05-05 22:43:00,
2013-05-05 18:48:00,83.8,75.4,29.85,SE,135,0.0,0.0,76,0.00,,---,0.20,VWS V13.01,2013-05-05 22:48:00,
2013-05-05 18:53:00,83.6,75.2,29.86,SE,135,0.0,0.0,76,0.00,,---,0.20,VWS V13.01,2013-05-05 22:53:00,
2013-05-05 18:58:00,83.4,75.1,29.86,East,90,0.0,0.0,76,0.00,,---,0.20,VWS V13.01,2013-05-05 22:58:00,
2013-05-05 19:03:00,83.4,75.1,29.86,North,0,0.0,0.0,76,0.00,,---,0.20,VWS V13.01,2013-05-05 23:03:00,
2013-05-05 19:08:00,83.4,75.1,29.86,NNW,338,0.0,0.0,76,0.00,,---,0.20,VWS V13.01,2013-05-05 23:08:00,
2013-05-05 19:13:00,83.1,74.8,29.87,NNW,338,3.8,3.8,76,0.00,,---,0.20,VWS V13.01,2013-05-05 23:13:00,
2013-05-05 19:18:00,82.9,75.3,29.86,NNW,338,3.8,3.8,78,0.00,,---,0.20,VWS V13.01,2013-05-05 23:18:00,
2013-05-05 19:23:00,82.5,75.3,29.86,North,0,0.0,0.0,79,0.00,,---,0.20,VWS V13.01,2013-05-05 23:23:00,
2013-05-05 19:28:00,82.2,75.0,29.86,North,0,0.0,0.0,79,0.02,,---,0.22,VWS V13.01,2013-05-05 23:28:00,
2013-05-05 19:33:00,82.4,75.2,29.87,WNW,292,2.2,2.2,79,0.02,,---,0.22,VWS V13.01,2013-05-05 23:33:00,
2013-05-05 19:38:00,82.2,75.4,29.87,NW,315,0.0,0.0,80,0.02,,---,0.22,VWS V13.01,2013-05-05 23:38:00,
2013-05-05 19:43:00,82.2,75.4,29.87,WNW,292,0.0,0.0,80,0.02,,---,0.22,VWS V13.01,2013-05-05 23:43:00,
2013-05-05 19:48:00,82.0,75.6,29.87,SSW,202,2.2,2.2,81,0.02,,---,0.22,VWS V13.01,2013-05-05 23:48:00,
2013-05-05 19:53:00,82.0,75.6,29.88,SSW,202,0.0,0.0,81,0.02,,---,0.22,VWS V13.01,2013-05-05 23:53:00,
2013-05-05 19:58:00,81.8,75.4,29.88,SSW,202,0.0,0.0,81,0.02,,---,0.22,VWS V13.01,2013-05-05 23:58:00,
2013-05-05 20:03:00,81.6,75.6,29.88,SW,225,0.0,0.0,82,0.04,,---,0.00,VWS V13.01,2013-05-06 00:03:00,
2013-05-05 20:08:00,81.5,75.5,29.88,SSE,158,0.0,0.0,82,0.04,,---,0.24,VWS V13.01,2013-05-06 00:08:00,
2013-05-05 20:13:00,81.5,75.8,29.88,South,180,0.0,0.0,83,0.04,,---,0.24,VWS V13.01,2013-05-06 00:13:00,
2013-05-05 20:18:00,81.3,75.7,29.88,SW,225,0.0,0.0,83,0.04,,---,0.24,VWS V13.01,2013-05-06 00:18:00,
2013-05-05 20:23:00,81.3,75.7,29.88,SW,225,0.8,0.8,83,0.02,,---,0.24,VWS V13.01,2013-05-06 00:23:00,
2013-05-05 20:28:00,81.1,75.4,29.89,SSW,202,0.0,0.0,83,0.02,,---,0.24,VWS V13.01,2013-05-06 00:28:00,
2013-05-05 20:33:00,81.1,75.4,29.88,SSW,202,1.5,1.5,83,0.02,,---,0.24,VWS V13.01,2013-05-06 00:33:00,
2013-05-05 20:38:00,81.1,75.4,29.89,South,180,0.0,0.0,83,0.02,,---,0.24,VWS V13.01,2013-05-06 00:38:00,
2013-05-05 20:43:00,81.1,75.8,29.89,WNW,292,0.0,0.0,84,0.02,,---,0.24,VWS V13.01,2013-05-06 00:43:00,
2013-05-05 20:48:00,81.1,75.8,29.89,West,270,0.0,0.0,84,0.02,,---,0.24,VWS V13.01,2013-05-06 00:48:00,
2013-05-05 20:53:00,81.1,75.8,29.89,WSW,248,0.0,0.0,84,0.02,,---,0.24,VWS V13.01,2013-05-06 00:53:00,
2013-05-05 20:58:00,81.1,75.8,29.89,South,180,0.0,0.0,84,0.02,,---,0.24,VWS V13.01,2013-05-06 00:58:00,
2013-05-05 21:03:00,80.9,75.6,29.89,SSW,202,2.2,2.2,84,0.00,,---,0.24,VWS V13.01,2013-05-06 01:03:00,
2013-05-05 21:08:00,80.7,75.4,29.89,South,180,0.0,0.0,84,0.00,,---,0.24,VWS V13.01,2013-05-06 01:08:00,
2013-05-05 21:13:00,80.7,75.4,29.89,South,180,0.0,0.0,84,0.00,,---,0.24,VWS V13.01,2013-05-06 01:13:00,
2013-05-05 21:18:00,80.7,75.4,29.89,South,180,0.0,0.0,84,0.00,,---,0.24,VWS V13.01,2013-05-06 01:18:00,
2013-05-05 21:23:00,80.7,75.4,29.89,South,180,0.6,0.6,84,0.00,,---,0.24,VWS V13.01,2013-05-06 01:23:00,
2013-05-05 21:28:00,80.7,75.4,29.89,SSW,202,1.3,1.3,84,0.00,,---,0.24,VWS V13.01,2013-05-06 01:28:00,
2013-05-05 21:33:00,80.7,75.1,29.90,South,180,1.3,1.3,83,0.00,,---,0.24,VWS V13.01,2013-05-06 01:33:00,
2013-05-05 21:38:00,80.7,75.1,29.89,South,180,0.0,0.0,83,0.00,,---,0.24,VWS V13.01,2013-05-06 01:38:00,
2013-05-05 21:43:00,80.7,75.1,29.90,South,180,0.0,0.0,83,0.00,,---,0.24,VWS V13.01,2013-05-06 01:43:00,
2013-05-05 21:48:00,80.7,75.1,29.90,SSW,202,0.0,0.0,83,0.00,,---,0.24,VWS V13.01,2013-05-06 01:48:00,
2013-05-05 21:53:00,80.7,75.1,29.90,SSW,202,0.0,0.0,83,0.00,,---,0.24,VWS V13.01,2013-05-06 01:53:00,
2013-05-05 21:58:00,80.7,75.1,29.90,South,180,0.0,0.0,83,0.00,,---,0.24,VWS V13.01,2013-05-06 01:58:00,
2013-05-05 22:03:00,80.6,75.0,29.90,SSW,202,0.0,0.0,83,0.00,,---,0.00,VWS V13.01,2013-05-06 02:03:00,
2013-05-05 22:08:00,80.4,74.8,29.90,South,180,0.0,0.0,83,0.00,,---,0.24,VWS V13.01,2013-05-06 02:08:00,
2013-05-05 22:13:00,80.4,74.8,29.90,South,180,0.0,0.0,83,0.00,,---,0.24,VWS V13.01,2013-05-06 02:13:00,
2013-05-05 22:18:00,80.4,74.8,29.90,SSW,202,1.3,1.3,83,0.00,,---,0.24,VWS V13.01,2013-05-06 02:18:00,
2013-05-05 22:23:00,80.4,74.8,29.90,South,180,0.0,0.0,83,0.00,,---,0.24,VWS V13.01,2013-05-06 02:23:00,
2013-05-05 22:28:00,80.4,74.8,29.90,South,180,0.0,0.0,83,0.00,,---,0.24,VWS V13.01,2013-05-06 02:28:00,
2013-05-05 22:33:00,80.6,75.0,29.90,SSE,158,0.0,0.0,83,0.00,,---,0.24,VWS V13.01,2013-05-06 02:33:00,
2013-05-05 22:38:00,80.6,75.0,29.90,ESE,112,0.0,0.0,83,0.00,,---,0.24,VWS V13.01,2013-05-06 02:38:00,
2013-05-05 22:43:00,80.7,75.1,29.90,South,180,0.0,0.0,83,0.00,,---,0.24,VWS V13.01,2013-05-06 02:43:00,
2013-05-05 22:48:00,80.6,74.6,29.90,SSW,202,1.3,1.3,82,0.00,,---,0.24,VWS V13.01,2013-05-06 02:48:00,
2013-05-05 22:53:00,80.4,74.4,29.90,South,180,0.0,0.0,82,0.00,,---,0.24,VWS V13.01,2013-05-06 02:53:00,
2013-05-05 22:58:00,80.4,74.4,29.91,SSE,158,0.0,0.0,82,0.00,,---,0.24,VWS V13.01,2013-05-06 02:58:00,
2013-05-05 23:03:00,80.4,74.4,29.91,South,180,0.0,0.0,82,0.00,,---,0.24,VWS V13.01,2013-05-06 03:03:00,
2013-05-05 23:08:00,80.4,74.4,29.91,South,180,0.0,0.0,82,0.00,,---,0.24,VWS V13.01,2013-05-06 03:08:00,
2013-05-05 23:13:00,80.4,74.4,29.91,SSE,158,0.0,0.0,82,0.00,,---,0.24,VWS V13.01,2013-05-06 03:13:00,
2013-05-05 23:18:00,80.4,74.4,29.91,South,180,0.0,0.0,82,0.00,,---,0.24,VWS V13.01,2013-05-06 03:18:00,
2013-05-05 23:23:00,80.4,74.4,29.90,SE,135,0.0,0.0,82,0.00,,---,0.24,VWS V13.01,2013-05-06 03:23:00,
2013-05-05 23:28:00,80.4,74.4,29.90,South,180,0.0,0.0,82,0.00,,---,0.24,VWS V13.01,2013-05-06 03:28:00,
2013-05-05 23:33:00,80.4,74.4,29.91,South,180,0.0,0.0,82,0.00,,---,0.24,VWS V13.01,2013-05-06 03:33:00,
2013-05-05 23:38:00,80.4,74.4,29.91,South,180,0.0,0.0,82,0.00,,---,0.24,VWS V13.01,2013-05-06 03:38:00,
2013-05-05 23:43:00,80.2,74.2,29.90,SSW,202,0.0,0.0,82,0.00,,---,0.24,VWS V13.01,2013-05-06 03:43:00,
2013-05-05 23:48:00,80.2,74.2,29.90,South,180,0.0,0.0,82,0.00,,---,0.24,VWS V13.01,2013-05-06 03:48:00,
2013-05-05 23:53:00,80.2,74.2,29.90,South,180,0.0,0.0,82,0.00,,---,0.24,VWS V13.01,2013-05-06 03:53:00,
2013-05-05 23:58:00,80.2,74.2,29.90,South,180,0.0,0.0,82,0.00,,---,0.24,VWS V13.01,2013-05-06 03:58:00,